sensor_id;sensor_type;location;lat;lon;timestamp;pressure;altitude;pressure_sealevel;temperature;humidity
69593;BME280;56796;50.122;14.468;2023-04-19T00:07:21;985.25;;;8.87;100
69593;BME280;56796;50.122;14.468;2023-04-19T00:26:49;984.94;;;8.83;100
69593;BME280;56796;50.122;14.468;2023-04-19T00:46:14;984.7;;;8.87;100
69593;BME280;56796;50.122;14.468;2023-04-19T01:05:40;984.5;;;8.89;100
69593;BME280;56796;50.122;14.468;2023-04-19T01:25:07;984.3;;;8.83;100
69593;BME280;56796;50.122;14.468;2023-04-19T01:44:32;984.09;;;8.87;100
69593;BME280;56796;50.122;14.468;2023-04-19T02:03:59;984.05;;;8.81;100
69593;BME280;56796;50.122;14.468;2023-04-19T02:23:24;983.92;;;8.66;100
69593;BME280;56796;50.122;14.468;2023-04-19T02:42:50;983.73;;;8.6;100
69593;BME280;56796;50.122;14.468;2023-04-19T03:02:17;983.5;;;8.58;100
69593;BME280;56796;50.122;14.468;2023-04-19T03:21:43;983.41;;;8.54;100
69593;BME280;56796;50.122;14.468;2023-04-19T04:00:35;982.97;;;8.47;100
69593;BME280;56796;50.122;14.468;2023-04-19T04:20:03;982.92;;;8.49;100
69593;BME280;56796;50.122;14.468;2023-04-19T04:39:27;982.96;;;8.51;100
69593;BME280;56796;50.122;14.468;2023-04-19T04:58:54;982.86;;;8.39;100
69593;BME280;56796;50.122;14.468;2023-04-19T05:18:20;982.86;;;8.33;100
69593;BME280;56796;50.122;14.468;2023-04-19T05:37:46;982.81;;;8.32;100
69593;BME280;56796;50.122;14.468;2023-04-19T05:57:12;982.74;;;8.34;100
69593;BME280;56796;50.122;14.468;2023-04-19T06:16:38;982.74;;;8.21;100
69593;BME280;56796;50.122;14.468;2023-04-19T06:36:05;982.83;;;7.99;100
69593;BME280;56796;50.122;14.468;2023-04-19T06:55:31;982.72;;;7.61;100
69593;BME280;56796;50.122;14.468;2023-04-19T07:14:57;982.59;;;8.25;99.9
69593;BME280;56796;50.122;14.468;2023-04-19T07:34:32;982.41;;;8.63;94.12
69593;BME280;56796;50.122;14.468;2023-04-19T07:53:48;982.43;;;9.14;88.86
69593;BME280;56796;50.122;14.468;2023-04-19T08:13:17;982.31;;;9.31;84.76
69593;BME280;56796;50.122;14.468;2023-04-19T08:32:49;982.14;;;11.79;73.49
69593;BME280;56796;50.122;14.468;2023-04-19T08:52:24;982.03;;;12.78;60.08
69593;BME280;56796;50.122;14.468;2023-04-19T09:11:54;981.85;;;13.09;55.87
69593;BME280;56796;50.122;14.468;2023-04-19T09:31:23;981.71;;;12.78;49.59
69593;BME280;56796;50.122;14.468;2023-04-19T09:50:52;981.58;;;13.93;47.07
69593;BME280;56796;50.122;14.468;2023-04-19T10:10:23;981.48;;;14.5;48.2
69593;BME280;56796;50.122;14.468;2023-04-19T10:49:08;981.32;;;14.17;50.12
69593;BME280;56796;50.122;14.468;2023-04-19T11:08:32;981.42;;;13.06;52.94
69593;BME280;56796;50.122;14.468;2023-04-19T11:27:55;981.45;;;11.1;53.23
69593;BME280;56796;50.122;14.468;2023-04-19T11:47:21;981.55;;;10.79;55.39
69593;BME280;56796;50.122;14.468;2023-04-19T12:06:42;981.42;;;12.9;48.98
69593;BME280;56796;50.122;14.468;2023-04-19T12:26:09;981.57;;;11.95;53.28
69593;BME280;56796;50.122;14.468;2023-04-19T12:45:34;981.45;;;11.16;54.47
69593;BME280;56796;50.122;14.468;2023-04-19T13:05:01;981.34;;;12.02;54.04
69593;BME280;56796;50.122;14.468;2023-04-19T13:24:22;981.3;;;11.23;53.95
69593;BME280;56796;50.122;14.468;2023-04-19T13:43:45;981.11;;;12.07;52.78
69593;BME280;56796;50.122;14.468;2023-04-19T14:03:09;981.19;;;10.21;50.73
69593;BME280;56796;50.122;14.468;2023-04-19T14:22:33;981.07;;;9.93;52.07
69593;BME280;56796;50.122;14.468;2023-04-19T14:42:00;980.75;;;11;51.16
69593;BME280;56796;50.122;14.468;2023-04-19T15:01:25;980.63;;;11.41;52.06
69593;BME280;56796;50.122;14.468;2023-04-19T15:20:50;980.69;;;9.89;55.32
69593;BME280;56796;50.122;14.468;2023-04-19T15:40:16;980.61;;;9.89;54.18
69593;BME280;56796;50.122;14.468;2023-04-19T15:59:39;980.66;;;9.08;58.36
69593;BME280;56796;50.122;14.468;2023-04-19T16:19:03;980.74;;;9.16;60.77
69593;BME280;56796;50.122;14.468;2023-04-19T16:38:30;980.66;;;9.03;62.76
69593;BME280;56796;50.122;14.468;2023-04-19T16:57:55;980.78;;;8.5;68.38
69593;BME280;56796;50.122;14.468;2023-04-19T17:17:19;980.8;;;7.85;72.48
69593;BME280;56796;50.122;14.468;2023-04-19T17:36:42;980.98;;;6.89;78.46
69593;BME280;56796;50.122;14.468;2023-04-19T17:56:05;981.2;;;6.29;80.72
69593;BME280;56796;50.122;14.468;2023-04-19T18:15:29;981.39;;;5.85;84.36
69593;BME280;56796;50.122;14.468;2023-04-19T18:34:54;981.42;;;5.57;86.46
69593;BME280;56796;50.122;14.468;2023-04-19T18:54:19;981.55;;;5.14;89.45
69593;BME280;56796;50.122;14.468;2023-04-19T19:13:44;981.73;;;5.16;90.2
69593;BME280;56796;50.122;14.468;2023-04-19T19:33:10;981.84;;;5.15;90.67
69593;BME280;56796;50.122;14.468;2023-04-19T19:52:35;981.87;;;4.92;91.08
69593;BME280;56796;50.122;14.468;2023-04-19T20:12:00;981.93;;;4.61;91.57
69593;BME280;56796;50.122;14.468;2023-04-19T20:31:24;982.03;;;4.21;91.58
69593;BME280;56796;50.122;14.468;2023-04-19T20:50:49;982.03;;;4.03;91.52
69593;BME280;56796;50.122;14.468;2023-04-19T21:10:14;981.95;;;3.87;91.58
69593;BME280;56796;50.122;14.468;2023-04-19T21:29:40;981.97;;;3.77;91.83
69593;BME280;56796;50.122;14.468;2023-04-19T21:49:05;982.02;;;3.86;91.8
69593;BME280;56796;50.122;14.468;2023-04-19T22:08:30;981.97;;;3.89;91.57
69593;BME280;56796;50.122;14.468;2023-04-19T22:27:56;982.07;;;4.17;91.64
69593;BME280;56796;50.122;14.468;2023-04-19T22:47:23;981.91;;;4.21;91.37
69593;BME280;56796;50.122;14.468;2023-04-19T23:06:49;981.96;;;3.84;91.69
69593;BME280;56796;50.122;14.468;2023-04-19T23:26:14;981.82;;;3.78;91.83
69593;BME280;56796;50.122;14.468;2023-04-19T23:45:39;981.77;;;3.64;92.64
